createdAt,value
2023-01-15T00:02:48.494Z,80.20
2023-01-15T00:07:51.177Z,80.45
2023-01-15T00:12:52.878Z,80.04
2023-01-15T00:17:54.519Z,80.24
2023-01-15T00:22:56.141Z,79.88
2023-01-15T00:27:57.769Z,80.67
2023-01-15T00:32:59.769Z,79.94
2023-01-15T00:38:01.434Z,80.18
2023-01-15T00:43:03.066Z,79.29
2023-01-15T00:48:04.714Z,78.75
2023-01-15T00:53:06.453Z,78.96
2023-01-15T00:58:08.150Z,79.00
2023-01-15T01:03:09.917Z,78.71
2023-01-15T01:08:14.211Z,79.14
2023-01-15T01:13:15.864Z,79.56
2023-01-15T01:18:17.480Z,79.21
2023-01-15T01:23:19.814Z,79.16
2023-01-15T01:28:21.434Z,78.85
2023-01-15T01:33:23.063Z,79.29
2023-01-15T01:38:24.694Z,79.50
2023-01-15T01:43:28.537Z,79.68
2023-01-15T01:48:34.478Z,79.15
2023-01-15T01:53:36.313Z,79.47
2023-01-15T01:58:38.688Z,79.78
2023-01-15T02:03:40.460Z,79.50
2023-01-15T02:08:42.861Z,79.55
2023-01-15T02:13:54.581Z,79.15
2023-01-15T02:19:19.533Z,78.92
2023-01-15T02:24:37.787Z,78.54
2023-01-15T02:29:49.138Z,78.90
2023-01-15T02:34:59.776Z,78.48
2023-01-15T02:40:06.948Z,78.34
2023-01-15T02:45:13.008Z,78.68
2023-01-15T02:50:22.834Z,78.46
2023-01-15T02:55:28.566Z,78.83
2023-01-15T03:00:35.966Z,77.88
2023-01-15T03:05:48.774Z,77.67
2023-01-15T03:11:07.039Z,77.48
2023-01-15T03:16:37.358Z,77.37
2023-01-15T03:21:48.713Z,77.93
2023-01-15T03:26:50.849Z,77.86
2023-01-15T03:31:52.565Z,78.02
2023-01-15T03:36:54.300Z,77.71
2023-01-15T03:42:12.217Z,79.89
2023-01-15T03:47:30.720Z,81.35
2023-01-15T03:52:55.482Z,81.30
2023-01-15T03:58:03.065Z,80.56
2023-01-15T04:03:11.074Z,81.25
2023-01-15T04:08:17.707Z,79.86
2023-01-15T04:13:21.774Z,79.17
2023-01-15T04:18:23.443Z,79.92
2023-01-15T04:23:25.699Z,80.93
2023-01-15T04:28:27.326Z,82.77
2023-01-15T04:33:28.972Z,82.12
2023-01-15T04:38:30.645Z,82.06
2023-01-15T04:43:50.635Z,81.04
2023-01-15T04:48:52.278Z,80.08
2023-01-15T04:53:53.944Z,79.12
2023-01-15T04:58:55.566Z,79.01
2023-01-15T05:03:58.428Z,78.46
2023-01-15T05:09:01.361Z,77.88
2023-01-15T05:14:03.349Z,77.73
2023-01-15T05:19:08.133Z,77.63
2023-01-15T05:24:13.883Z,77.91
2023-01-15T05:29:15.936Z,77.47
2023-01-15T05:34:17.606Z,76.99
2023-01-15T05:39:19.279Z,77.34
2023-01-15T05:44:24.736Z,76.91
2023-01-15T05:49:28.334Z,77.32
2023-01-15T05:54:33.594Z,77.13
2023-01-15T05:59:35.208Z,77.21
2023-01-15T06:04:36.856Z,77.43
2023-01-15T06:09:38.499Z,77.10
2023-01-15T06:14:40.110Z,77.56
2023-01-15T06:19:41.730Z,77.04
2023-01-15T06:24:43.338Z,77.31
2023-01-15T06:29:44.944Z,77.35
2023-01-15T06:34:46.594Z,78.33
2023-01-15T06:39:48.268Z,92.69
2023-01-15T06:45:08.402Z,100.00
2023-01-15T06:50:10.777Z,100.00
2023-01-15T06:55:12.427Z,100.00
2023-01-15T07:00:14.571Z,100.00
2023-01-15T07:05:16.288Z,100.00
2023-01-15T07:10:18.333Z,100.00
2023-01-15T07:15:19.958Z,100.00
2023-01-15T07:20:22.043Z,100.00
2023-01-15T07:25:23.673Z,100.00
2023-01-15T07:30:25.292Z,100.00
2023-01-15T07:35:26.905Z,100.00
2023-01-15T07:40:28.918Z,100.00
2023-01-15T07:46:05.698Z,100.00
2023-01-15T07:51:07.328Z,100.00
2023-01-15T07:56:09.191Z,100.00
2023-01-15T08:01:10.908Z,100.00
2023-01-15T08:06:12.634Z,100.00
2023-01-15T08:11:32.985Z,100.00
2023-01-15T08:16:37.699Z,100.00
2023-01-15T08:21:39.346Z,100.00
2023-01-15T08:26:40.963Z,100.00
2023-01-15T08:31:42.643Z,100.00
2023-01-15T08:36:44.287Z,100.00
2023-01-15T08:41:45.919Z,100.00
2023-01-15T08:46:48.643Z,100.00
2023-01-15T08:51:52.168Z,100.00
2023-01-15T08:56:53.891Z,100.00
2023-01-15T09:01:55.739Z,100.00
2023-01-15T09:06:57.451Z,100.00
2023-01-15T09:11:59.058Z,100.00
2023-01-15T09:17:00.670Z,100.00
2023-01-15T09:22:02.294Z,100.00
2023-01-15T09:27:03.937Z,100.00
2023-01-15T09:32:05.935Z,100.00
2023-01-15T09:37:07.624Z,100.00
2023-01-15T09:42:36.967Z,100.00
2023-01-15T09:47:58.999Z,100.00
2023-01-15T09:53:03.580Z,100.00
2023-01-15T09:58:06.471Z,100.00
2023-01-15T10:03:29.251Z,100.00
2023-01-15T10:08:38.534Z,100.00
2023-01-15T10:13:52.532Z,100.00
2023-01-15T10:18:55.937Z,100.00
2023-01-15T10:24:17.763Z,100.00
2023-01-15T10:29:51.595Z,100.00
2023-01-15T10:35:00.259Z,100.00
2023-01-15T10:40:26.672Z,100.00
2023-01-15T10:45:33.631Z,97.39
2023-01-15T10:50:36.043Z,96.47
2023-01-15T10:55:45.361Z,92.91
2023-01-15T11:00:54.932Z,91.51
2023-01-15T11:05:57.089Z,90.16
2023-01-15T11:11:21.451Z,89.04
2023-01-15T11:16:39.022Z,88.43
2023-01-15T11:21:42.720Z,89.87
2023-01-15T11:26:50.847Z,92.46
2023-01-15T11:31:52.442Z,91.10
2023-01-15T11:37:03.997Z,91.49
2023-01-15T11:42:25.301Z,91.13
2023-01-15T11:47:45.589Z,90.03
2023-01-15T11:52:57.340Z,91.72
2023-01-15T11:57:59.321Z,91.45
2023-01-15T12:03:15.957Z,90.53
2023-01-15T12:08:39.563Z,90.53
2023-01-15T12:14:01.679Z,90.15
2023-01-15T12:19:12.122Z,88.90
2023-01-15T12:24:22.435Z,87.45
2023-01-15T12:29:31.696Z,86.20
2023-01-15T12:35:02.434Z,86.46
2023-01-15T12:40:24.436Z,85.57
2023-01-15T12:45:31.715Z,84.06
2023-01-15T12:50:46.947Z,83.61
2023-01-15T12:55:57.606Z,83.98
2023-01-15T13:01:16.520Z,83.85
2023-01-15T13:06:19.591Z,83.28
2023-01-15T13:11:21.241Z,84.22
2023-01-15T13:16:26.452Z,82.64
2023-01-15T13:21:31.105Z,83.50
2023-01-15T13:27:00.499Z,82.30
2023-01-15T13:32:11.010Z,81.63
2023-01-15T13:37:21.919Z,81.88
2023-01-15T13:42:32.832Z,82.45
2023-01-15T13:47:38.854Z,80.81
2023-01-15T13:52:40.830Z,79.89
2023-01-15T13:57:43.706Z,79.74
2023-01-15T14:02:55.735Z,78.92
2023-01-15T14:07:58.724Z,79.05
2023-01-15T14:13:12.209Z,77.96
2023-01-15T14:18:30.139Z,77.48
2023-01-15T14:24:02.786Z,77.56
2023-01-15T14:29:27.411Z,76.84
2023-01-15T14:34:32.226Z,76.35
2023-01-15T14:39:40.518Z,76.81
2023-01-15T14:44:44.814Z,77.10
2023-01-15T14:49:49.897Z,78.41
2023-01-15T14:54:53.528Z,78.59
2023-01-15T15:00:00.832Z,79.24
2023-01-15T15:05:08.998Z,78.74
2023-01-15T15:10:13.657Z,79.33
2023-01-15T15:15:21.771Z,78.69
2023-01-15T15:20:42.327Z,77.85
2023-01-15T15:25:54.789Z,77.81
2023-01-15T15:31:01.836Z,76.15
2023-01-15T15:36:04.463Z,74.63
2023-01-15T15:41:11.021Z,74.43
2023-01-15T15:46:46.652Z,75.16
2023-01-15T15:51:53.388Z,75.30
2023-01-15T15:57:07.209Z,74.70
2023-01-15T16:02:22.517Z,74.12
2023-01-15T16:07:27.337Z,74.75
2023-01-15T16:12:33.363Z,74.39
2023-01-15T16:17:36.277Z,75.25
2023-01-15T16:22:38.022Z,75.96
2023-01-15T16:27:39.735Z,75.97
2023-01-15T16:32:43.061Z,76.05
2023-01-15T16:37:51.234Z,76.89
2023-01-15T16:43:01.068Z,77.00
2023-01-15T16:48:27.603Z,78.05
2023-01-15T16:53:39.409Z,77.95
2023-01-15T16:58:44.687Z,77.30
2023-01-15T17:03:46.413Z,76.89
2023-01-15T17:08:49.799Z,77.24
2023-01-15T17:13:51.631Z,77.14
2023-01-15T17:18:53.345Z,76.27
2023-01-15T17:23:56.734Z,76.64
2023-01-15T17:28:58.479Z,76.16
2023-01-15T17:34:02.808Z,75.64
2023-01-15T17:39:04.498Z,75.68
2023-01-15T17:44:06.901Z,75.69
2023-01-15T17:49:08.511Z,75.18
2023-01-15T17:54:10.118Z,75.25
2023-01-15T17:59:30.392Z,75.74
2023-01-15T18:04:59.061Z,76.01
2023-01-15T18:10:01.705Z,76.76
2023-01-15T18:15:03.621Z,76.63
2023-01-15T18:20:05.822Z,76.79
2023-01-15T18:25:10.664Z,77.07
2023-01-15T18:30:15.197Z,76.76
2023-01-15T18:35:18.400Z,75.59
2023-01-15T18:40:20.693Z,75.54
2023-01-15T18:45:40.988Z,75.67
2023-01-15T18:50:42.609Z,75.36
2023-01-15T18:55:44.227Z,75.72
2023-01-15T19:00:45.883Z,75.66
2023-01-15T19:05:47.616Z,75.82
2023-01-15T19:10:49.223Z,75.96
2023-01-15T19:16:09.173Z,76.22
2023-01-15T19:21:12.843Z,75.61
2023-01-15T19:26:14.887Z,75.61
2023-01-15T19:31:36.827Z,76.43
2023-01-15T19:36:38.758Z,75.73
2023-01-15T19:41:58.982Z,75.89
2023-01-15T19:47:19.130Z,75.10
2023-01-15T19:52:36.036Z,76.19
2023-01-15T19:57:38.445Z,75.63
2023-01-15T20:02:40.452Z,75.32
2023-01-15T20:07:42.937Z,75.92
2023-01-15T20:13:03.369Z,74.92
2023-01-15T20:18:05.327Z,75.79
2023-01-15T20:23:06.993Z,75.31
2023-01-15T20:28:08.653Z,75.78
2023-01-15T20:33:10.287Z,75.22
2023-01-15T20:38:11.931Z,75.32
2023-01-15T20:43:32.395Z,74.91
2023-01-15T20:48:52.657Z,75.25
2023-01-15T20:53:54.493Z,75.17
2023-01-15T20:58:56.956Z,75.21
2023-01-15T21:03:58.611Z,75.03
2023-01-15T21:09:00.216Z,75.03
2023-01-15T21:14:01.976Z,74.49
2023-01-15T21:19:04.910Z,74.29
2023-01-15T21:24:06.800Z,74.30
2023-01-15T21:29:08.450Z,74.15
2023-01-15T21:34:10.481Z,75.02
2023-01-15T21:39:14.083Z,74.36
2023-01-15T21:44:33.054Z,73.95
2023-01-15T21:49:35.063Z,74.62
2023-01-15T21:54:36.787Z,74.90
2023-01-15T21:59:38.493Z,75.66
2023-01-15T22:04:40.168Z,75.79
2023-01-15T22:09:41.809Z,75.49
2023-01-15T22:14:43.491Z,75.97
2023-01-15T22:19:45.167Z,75.88
2023-01-15T22:24:46.841Z,75.98
2023-01-15T22:29:48.445Z,75.89
2023-01-15T22:34:50.119Z,76.15
2023-01-15T22:39:52.522Z,76.45
2023-01-15T22:44:56.122Z,76.69
2023-01-15T22:49:57.907Z,75.63
2023-01-15T22:54:59.570Z,76.83
2023-01-15T23:00:01.223Z,75.96
2023-01-15T23:05:02.905Z,77.39
2023-01-15T23:10:07.167Z,77.12
2023-01-15T23:15:12.235Z,77.29
2023-01-15T23:20:14.100Z,76.56
2023-01-15T23:25:15.820Z,75.44
2023-01-15T23:30:18.073Z,75.22
2023-01-15T23:35:20.149Z,74.93
2023-01-15T23:40:21.957Z,75.38
2023-01-15T23:45:42.228Z,77.45
2023-01-15T23:50:43.844Z,77.11
2023-01-15T23:55:45.470Z,76.59
